sensor_id;sensor_type;location;lat;lon;timestamp;temperature;humidity
5086;DHT22;4715;51.660;7.082;2023-05-10T00:00:20;14.40;99.90
5086;DHT22;4715;51.660;7.082;2023-05-10T00:02:43;14.40;99.90
5086;DHT22;4715;51.660;7.082;2023-05-10T00:05:06;14.40;99.90
5086;DHT22;4715;51.660;7.082;2023-05-10T00:07:28;14.40;99.90
5086;DHT22;4715;51.660;7.082;2023-05-10T00:09:49;14.40;99.90
5086;DHT22;4715;51.660;7.082;2023-05-10T00:12:13;14.40;99.90
5086;DHT22;4715;51.660;7.082;2023-05-10T00:14:35;14.40;99.90
5086;DHT22;4715;51.660;7.082;2023-05-10T00:16:56;14.40;99.90
5086;DHT22;4715;51.660;7.082;2023-05-10T00:19:18;14.40;99.90
5086;DHT22;4715;51.660;7.082;2023-05-10T00:21:40;14.40;99.90
5086;DHT22;4715;51.660;7.082;2023-05-10T00:24:02;14.40;99.90
5086;DHT22;4715;51.660;7.082;2023-05-10T00:26:24;14.40;99.90
5086;DHT22;4715;51.660;7.082;2023-05-10T00:28:47;14.40;99.90
5086;DHT22;4715;51.660;7.082;2023-05-10T00:31:09;14.40;99.90
5086;DHT22;4715;51.660;7.082;2023-05-10T00:33:30;14.30;99.90
5086;DHT22;4715;51.660;7.082;2023-05-10T00:35:52;14.30;99.90
5086;DHT22;4715;51.660;7.082;2023-05-10T00:38:14;14.30;99.90
5086;DHT22;4715;51.660;7.082;2023-05-10T00:40:36;14.30;99.90
5086;DHT22;4715;51.660;7.082;2023-05-10T00:42:58;14.30;99.90
5086;DHT22;4715;51.660;7.082;2023-05-10T00:45:22;14.40;99.90
5086;DHT22;4715;51.660;7.082;2023-05-10T00:47:44;14.40;99.90
5086;DHT22;4715;51.660;7.082;2023-05-10T00:50:07;14.40;99.90
5086;DHT22;4715;51.660;7.082;2023-05-10T00:52:30;14.40;99.90
5086;DHT22;4715;51.660;7.082;2023-05-10T00:54:52;14.40;99.90
5086;DHT22;4715;51.660;7.082;2023-05-10T00:57:14;14.30;99.90
5086;DHT22;4715;51.660;7.082;2023-05-10T00:59:36;14.30;99.90
5086;DHT22;4715;51.660;7.082;2023-05-10T01:01:59;14.30;99.90
5086;DHT22;4715;51.660;7.082;2023-05-10T01:04:21;14.30;99.90
5086;DHT22;4715;51.660;7.082;2023-05-10T01:06:45;14.30;99.90
5086;DHT22;4715;51.660;7.082;2023-05-10T01:09:07;14.20;99.90
5086;DHT22;4715;51.660;7.082;2023-05-10T01:11:29;14.20;99.90
5086;DHT22;4715;51.660;7.082;2023-05-10T01:13:55;14.20;99.90
5086;DHT22;4715;51.660;7.082;2023-05-10T01:16:17;14.20;99.90
5086;DHT22;4715;51.660;7.082;2023-05-10T01:18:41;14.20;99.90
5086;DHT22;4715;51.660;7.082;2023-05-10T01:21:13;14.20;99.90
5086;DHT22;4715;51.660;7.082;2023-05-10T01:23:46;14.20;99.90
5086;DHT22;4715;51.660;7.082;2023-05-10T01:26:34;14.10;99.90
5086;DHT22;4715;51.660;7.082;2023-05-10T01:29:24;14.10;99.90
5086;DHT22;4715;51.660;7.082;2023-05-10T01:32:15;14.10;99.90
5086;DHT22;4715;51.660;7.082;2023-05-10T01:34:44;14.10;99.90
5086;DHT22;4715;51.660;7.082;2023-05-10T01:37:11;14.00;99.90
5086;DHT22;4715;51.660;7.082;2023-05-10T01:39:42;14.00;99.90
5086;DHT22;4715;51.660;7.082;2023-05-10T01:42:08;14.00;99.90
5086;DHT22;4715;51.660;7.082;2023-05-10T01:44:35;14.00;99.90
5086;DHT22;4715;51.660;7.082;2023-05-10T01:47:01;13.90;99.90
5086;DHT22;4715;51.660;7.082;2023-05-10T01:49:32;13.90;99.90
5086;DHT22;4715;51.660;7.082;2023-05-10T01:52:00;13.90;99.90
5086;DHT22;4715;51.660;7.082;2023-05-10T01:54:25;13.80;99.90
5086;DHT22;4715;51.660;7.082;2023-05-10T01:56:55;13.80;99.90
5086;DHT22;4715;51.660;7.082;2023-05-10T01:59:19;13.80;99.90
5086;DHT22;4715;51.660;7.082;2023-05-10T02:01:43;13.80;99.90
5086;DHT22;4715;51.660;7.082;2023-05-10T02:04:09;13.80;99.90
5086;DHT22;4715;51.660;7.082;2023-05-10T02:06:34;13.80;99.90
5086;DHT22;4715;51.660;7.082;2023-05-10T02:08:57;13.80;99.90
5086;DHT22;4715;51.660;7.082;2023-05-10T02:11:19;13.70;99.90
5086;DHT22;4715;51.660;7.082;2023-05-10T02:13:43;13.70;99.90
5086;DHT22;4715;51.660;7.082;2023-05-10T02:16:05;13.70;99.90
5086;DHT22;4715;51.660;7.082;2023-05-10T02:18:28;13.70;99.90
5086;DHT22;4715;51.660;7.082;2023-05-10T02:20:52;13.70;99.90
5086;DHT22;4715;51.660;7.082;2023-05-10T02:23:17;13.70;99.90
5086;DHT22;4715;51.660;7.082;2023-05-10T02:25:41;13.60;99.90
5086;DHT22;4715;51.660;7.082;2023-05-10T02:28:06;13.60;99.90
5086;DHT22;4715;51.660;7.082;2023-05-10T02:30:29;13.70;99.90
5086;DHT22;4715;51.660;7.082;2023-05-10T02:32:52;13.70;99.90
5086;DHT22;4715;51.660;7.082;2023-05-10T02:35:15;13.70;99.90
5086;DHT22;4715;51.660;7.082;2023-05-10T02:37:38;13.70;99.90
5086;DHT22;4715;51.660;7.082;2023-05-10T02:40:03;13.70;99.90
5086;DHT22;4715;51.660;7.082;2023-05-10T02:42:27;13.70;99.90
5086;DHT22;4715;51.660;7.082;2023-05-10T02:44:52;13.70;99.90
5086;DHT22;4715;51.660;7.082;2023-05-10T02:47:15;13.70;99.90
5086;DHT22;4715;51.660;7.082;2023-05-10T02:49:36;13.70;99.90
5086;DHT22;4715;51.660;7.082;2023-05-10T02:52:00;13.70;99.90
5086;DHT22;4715;51.660;7.082;2023-05-10T02:54:29;13.70;99.90
5086;DHT22;4715;51.660;7.082;2023-05-10T02:56:57;13.60;99.90
5086;DHT22;4715;51.660;7.082;2023-05-10T02:59:19;13.60;99.90
5086;DHT22;4715;51.660;7.082;2023-05-10T03:01:41;13.50;99.90
5086;DHT22;4715;51.660;7.082;2023-05-10T03:04:04;13.60;99.90
5086;DHT22;4715;51.660;7.082;2023-05-10T03:06:25;13.60;99.90
5086;DHT22;4715;51.660;7.082;2023-05-10T03:08:48;13.60;99.90
5086;DHT22;4715;51.660;7.082;2023-05-10T03:11:21;13.60;99.90
5086;DHT22;4715;51.660;7.082;2023-05-10T03:13:55;13.60;99.90
5086;DHT22;4715;51.660;7.082;2023-05-10T03:16:25;13.60;99.90
5086;DHT22;4715;51.660;7.082;2023-05-10T03:18:54;13.60;99.90
5086;DHT22;4715;51.660;7.082;2023-05-10T03:21:18;13.60;99.90
5086;DHT22;4715;51.660;7.082;2023-05-10T03:23:43;13.60;99.90
5086;DHT22;4715;51.660;7.082;2023-05-10T03:26:06;13.60;99.90
5086;DHT22;4715;51.660;7.082;2023-05-10T03:28:29;13.60;99.90
5086;DHT22;4715;51.660;7.082;2023-05-10T03:30:53;13.60;99.90
5086;DHT22;4715;51.660;7.082;2023-05-10T03:33:15;13.60;99.90
5086;DHT22;4715;51.660;7.082;2023-05-10T03:35:39;13.60;99.90
5086;DHT22;4715;51.660;7.082;2023-05-10T03:38:01;13.60;99.90
5086;DHT22;4715;51.660;7.082;2023-05-10T03:40:23;13.60;99.90
5086;DHT22;4715;51.660;7.082;2023-05-10T03:42:45;13.60;99.90
5086;DHT22;4715;51.660;7.082;2023-05-10T03:45:08;13.50;99.90
5086;DHT22;4715;51.660;7.082;2023-05-10T03:47:31;13.50;99.90
5086;DHT22;4715;51.660;7.082;2023-05-10T03:49:53;13.50;99.90
5086;DHT22;4715;51.660;7.082;2023-05-10T03:52:15;13.50;99.90
5086;DHT22;4715;51.660;7.082;2023-05-10T03:54:36;13.50;99.90
5086;DHT22;4715;51.660;7.082;2023-05-10T03:56:58;13.50;99.90
5086;DHT22;4715;51.660;7.082;2023-05-10T03:59:20;13.50;99.90
5086;DHT22;4715;51.660;7.082;2023-05-10T04:01:42;13.50;99.90
5086;DHT22;4715;51.660;7.082;2023-05-10T04:04:05;13.40;99.90
5086;DHT22;4715;51.660;7.082;2023-05-10T04:06:27;13.40;99.90
5086;DHT22;4715;51.660;7.082;2023-05-10T04:08:49;13.40;99.90
5086;DHT22;4715;51.660;7.082;2023-05-10T04:11:11;13.40;99.90
5086;DHT22;4715;51.660;7.082;2023-05-10T04:13:34;13.40;99.90
5086;DHT22;4715;51.660;7.082;2023-05-10T04:15:56;13.50;99.90
5086;DHT22;4715;51.660;7.082;2023-05-10T04:18:18;13.50;99.90
5086;DHT22;4715;51.660;7.082;2023-05-10T04:20:41;13.50;99.90
5086;DHT22;4715;51.660;7.082;2023-05-10T04:23:03;13.50;99.90
5086;DHT22;4715;51.660;7.082;2023-05-10T04:25:24;13.50;99.90
5086;DHT22;4715;51.660;7.082;2023-05-10T04:27:46;13.50;99.90
5086;DHT22;4715;51.660;7.082;2023-05-10T04:30:09;13.60;99.90
5086;DHT22;4715;51.660;7.082;2023-05-10T04:32:31;13.60;99.90
5086;DHT22;4715;51.660;7.082;2023-05-10T04:34:52;13.50;99.90
5086;DHT22;4715;51.660;7.082;2023-05-10T04:37:16;13.50;99.90
5086;DHT22;4715;51.660;7.082;2023-05-10T04:39:38;13.50;99.90
5086;DHT22;4715;51.660;7.082;2023-05-10T04:41:59;13.60;99.90
5086;DHT22;4715;51.660;7.082;2023-05-10T04:44:23;13.60;99.90
5086;DHT22;4715;51.660;7.082;2023-05-10T04:46:45;13.60;99.90
5086;DHT22;4715;51.660;7.082;2023-05-10T04:49:06;13.60;99.90
5086;DHT22;4715;51.660;7.082;2023-05-10T04:51:28;13.60;99.90
5086;DHT22;4715;51.660;7.082;2023-05-10T04:53:52;13.60;99.90
5086;DHT22;4715;51.660;7.082;2023-05-10T04:56:14;13.60;99.90
5086;DHT22;4715;51.660;7.082;2023-05-10T04:58:36;13.60;99.90
5086;DHT22;4715;51.660;7.082;2023-05-10T05:01:05;13.60;99.90
5086;DHT22;4715;51.660;7.082;2023-05-10T05:03:26;13.70;99.90
5086;DHT22;4715;51.660;7.082;2023-05-10T05:05:48;13.70;99.90
5086;DHT22;4715;51.660;7.082;2023-05-10T05:08:10;13.70;99.90
5086;DHT22;4715;51.660;7.082;2023-05-10T05:10:33;13.70;99.90
5086;DHT22;4715;51.660;7.082;2023-05-10T05:12:55;13.70;99.90
5086;DHT22;4715;51.660;7.082;2023-05-10T05:15:17;13.70;99.90
5086;DHT22;4715;51.660;7.082;2023-05-10T05:17:39;13.70;99.90
5086;DHT22;4715;51.660;7.082;2023-05-10T05:20:00;13.70;99.90
5086;DHT22;4715;51.660;7.082;2023-05-10T05:22:22;13.70;99.90
5086;DHT22;4715;51.660;7.082;2023-05-10T05:24:47;13.70;99.90
5086;DHT22;4715;51.660;7.082;2023-05-10T05:27:13;13.70;99.90
5086;DHT22;4715;51.660;7.082;2023-05-10T05:29:35;13.70;99.90
5086;DHT22;4715;51.660;7.082;2023-05-10T05:31:58;13.70;99.90
5086;DHT22;4715;51.660;7.082;2023-05-10T05:34:20;13.70;99.90
5086;DHT22;4715;51.660;7.082;2023-05-10T05:36:42;13.70;99.90
5086;DHT22;4715;51.660;7.082;2023-05-10T05:39:04;13.70;99.90
5086;DHT22;4715;51.660;7.082;2023-05-10T05:41:26;13.70;99.90
5086;DHT22;4715;51.660;7.082;2023-05-10T05:43:49;13.70;99.90
5086;DHT22;4715;51.660;7.082;2023-05-10T05:46:11;13.70;99.90
5086;DHT22;4715;51.660;7.082;2023-05-10T05:48:35;13.70;99.90
5086;DHT22;4715;51.660;7.082;2023-05-10T05:50:59;13.80;99.90
5086;DHT22;4715;51.660;7.082;2023-05-10T05:53:20;13.80;99.90
5086;DHT22;4715;51.660;7.082;2023-05-10T05:55:52;13.80;99.90
5086;DHT22;4715;51.660;7.082;2023-05-10T05:58:14;13.80;99.90
5086;DHT22;4715;51.660;7.082;2023-05-10T06:00:38;13.80;99.90
5086;DHT22;4715;51.660;7.082;2023-05-10T06:03:02;13.80;99.90
5086;DHT22;4715;51.660;7.082;2023-05-10T06:05:25;13.80;99.90
5086;DHT22;4715;51.660;7.082;2023-05-10T06:07:47;13.80;99.90
5086;DHT22;4715;51.660;7.082;2023-05-10T06:10:09;13.80;99.90
5086;DHT22;4715;51.660;7.082;2023-05-10T06:12:31;13.80;99.90
5086;DHT22;4715;51.660;7.082;2023-05-10T06:14:53;13.80;99.90
5086;DHT22;4715;51.660;7.082;2023-05-10T06:17:16;13.90;99.90
5086;DHT22;4715;51.660;7.082;2023-05-10T06:19:39;13.90;99.90
5086;DHT22;4715;51.660;7.082;2023-05-10T06:22:01;13.90;99.90
5086;DHT22;4715;51.660;7.082;2023-05-10T06:24:25;13.90;99.90
5086;DHT22;4715;51.660;7.082;2023-05-10T06:26:48;14.00;99.90
5086;DHT22;4715;51.660;7.082;2023-05-10T06:29:11;14.10;99.90
5086;DHT22;4715;51.660;7.082;2023-05-10T06:34:29;14.20;99.90
5086;DHT22;4715;51.660;7.082;2023-05-10T06:36:52;14.10;99.90
5086;DHT22;4715;51.660;7.082;2023-05-10T06:39:14;14.20;99.90
5086;DHT22;4715;51.660;7.082;2023-05-10T06:41:36;14.20;99.90
5086;DHT22;4715;51.660;7.082;2023-05-10T06:43:59;14.20;99.90
5086;DHT22;4715;51.660;7.082;2023-05-10T06:46:21;14.30;99.90
5086;DHT22;4715;51.660;7.082;2023-05-10T06:48:43;14.30;99.90
5086;DHT22;4715;51.660;7.082;2023-05-10T06:51:07;14.30;99.90
5086;DHT22;4715;51.660;7.082;2023-05-10T06:53:30;14.30;99.90
5086;DHT22;4715;51.660;7.082;2023-05-10T06:55:51;14.30;99.90
5086;DHT22;4715;51.660;7.082;2023-05-10T06:58:14;14.30;99.90
5086;DHT22;4715;51.660;7.082;2023-05-10T07:00:36;14.30;99.90
5086;DHT22;4715;51.660;7.082;2023-05-10T07:03:00;14.40;99.90
5086;DHT22;4715;51.660;7.082;2023-05-10T07:05:22;14.40;99.90
5086;DHT22;4715;51.660;7.082;2023-05-10T07:07:45;14.50;99.90
5086;DHT22;4715;51.660;7.082;2023-05-10T07:10:08;14.50;99.90
5086;DHT22;4715;51.660;7.082;2023-05-10T07:12:31;14.60;99.90
5086;DHT22;4715;51.660;7.082;2023-05-10T07:14:53;14.60;99.90
5086;DHT22;4715;51.660;7.082;2023-05-10T07:17:15;14.70;99.90
5086;DHT22;4715;51.660;7.082;2023-05-10T07:19:36;14.60;99.90
5086;DHT22;4715;51.660;7.082;2023-05-10T07:21:58;14.70;99.90
5086;DHT22;4715;51.660;7.082;2023-05-10T07:24:21;14.60;99.90
5086;DHT22;4715;51.660;7.082;2023-05-10T07:26:43;14.70;99.90
5086;DHT22;4715;51.660;7.082;2023-05-10T07:29:05;14.90;99.90
5086;DHT22;4715;51.660;7.082;2023-05-10T07:31:27;15.00;99.90
5086;DHT22;4715;51.660;7.082;2023-05-10T07:33:49;15.10;99.90
5086;DHT22;4715;51.660;7.082;2023-05-10T07:36:11;15.10;99.90
5086;DHT22;4715;51.660;7.082;2023-05-10T07:38:33;15.20;99.90
5086;DHT22;4715;51.660;7.082;2023-05-10T07:40:56;15.20;99.90
5086;DHT22;4715;51.660;7.082;2023-05-10T07:43:18;15.20;99.90
5086;DHT22;4715;51.660;7.082;2023-05-10T07:45:40;15.10;99.90
5086;DHT22;4715;51.660;7.082;2023-05-10T07:48:05;15.10;99.90
5086;DHT22;4715;51.660;7.082;2023-05-10T07:50:28;15.10;99.90
5086;DHT22;4715;51.660;7.082;2023-05-10T07:52:50;15.10;99.90
5086;DHT22;4715;51.660;7.082;2023-05-10T07:55:12;15.20;99.90
5086;DHT22;4715;51.660;7.082;2023-05-10T07:57:35;15.20;99.90
5086;DHT22;4715;51.660;7.082;2023-05-10T07:59:57;15.30;99.90
5086;DHT22;4715;51.660;7.082;2023-05-10T08:02:19;15.30;99.90
5086;DHT22;4715;51.660;7.082;2023-05-10T08:04:40;15.30;99.90
5086;DHT22;4715;51.660;7.082;2023-05-10T08:07:02;15.30;99.90
5086;DHT22;4715;51.660;7.082;2023-05-10T08:09:24;15.30;99.90
5086;DHT22;4715;51.660;7.082;2023-05-10T08:11:46;15.30;99.90
5086;DHT22;4715;51.660;7.082;2023-05-10T08:14:09;15.30;99.90
5086;DHT22;4715;51.660;7.082;2023-05-10T08:16:32;15.20;99.90
5086;DHT22;4715;51.660;7.082;2023-05-10T08:18:54;15.20;99.90
5086;DHT22;4715;51.660;7.082;2023-05-10T08:21:16;15.20;99.90
5086;DHT22;4715;51.660;7.082;2023-05-10T08:23:38;15.20;99.90
5086;DHT22;4715;51.660;7.082;2023-05-10T08:26:00;15.20;99.90
5086;DHT22;4715;51.660;7.082;2023-05-10T08:28:22;15.20;99.90
5086;DHT22;4715;51.660;7.082;2023-05-10T08:30:45;15.20;99.90
5086;DHT22;4715;51.660;7.082;2023-05-10T08:33:07;15.30;99.90
5086;DHT22;4715;51.660;7.082;2023-05-10T08:35:28;15.30;99.90
5086;DHT22;4715;51.660;7.082;2023-05-10T08:37:50;15.30;99.90
5086;DHT22;4715;51.660;7.082;2023-05-10T08:40:12;15.30;99.90
5086;DHT22;4715;51.660;7.082;2023-05-10T08:42:36;15.30;99.90
5086;DHT22;4715;51.660;7.082;2023-05-10T08:45:01;15.30;99.90
5086;DHT22;4715;51.660;7.082;2023-05-10T08:47:25;15.40;99.90
5086;DHT22;4715;51.660;7.082;2023-05-10T08:49:48;15.40;99.90
5086;DHT22;4715;51.660;7.082;2023-05-10T08:52:13;15.40;99.90
5086;DHT22;4715;51.660;7.082;2023-05-10T08:54:36;15.40;99.90
5086;DHT22;4715;51.660;7.082;2023-05-10T08:56:58;15.40;99.90
5086;DHT22;4715;51.660;7.082;2023-05-10T08:59:20;15.50;99.90
5086;DHT22;4715;51.660;7.082;2023-05-10T09:01:43;15.50;99.90
5086;DHT22;4715;51.660;7.082;2023-05-10T09:04:07;15.70;99.90
5086;DHT22;4715;51.660;7.082;2023-05-10T09:06:29;15.80;99.90
5086;DHT22;4715;51.660;7.082;2023-05-10T09:08:53;15.90;99.90
5086;DHT22;4715;51.660;7.082;2023-05-10T09:11:20;16.10;99.90
5086;DHT22;4715;51.660;7.082;2023-05-10T09:13:42;16.30;99.90
5086;DHT22;4715;51.660;7.082;2023-05-10T09:16:08;16.30;99.90
5086;DHT22;4715;51.660;7.082;2023-05-10T09:18:30;16.20;99.90
5086;DHT22;4715;51.660;7.082;2023-05-10T09:20:54;16.20;99.90
5086;DHT22;4715;51.660;7.082;2023-05-10T09:23:16;16.30;99.90
5086;DHT22;4715;51.660;7.082;2023-05-10T09:25:38;16.30;99.90
5086;DHT22;4715;51.660;7.082;2023-05-10T09:28:01;16.30;99.90
5086;DHT22;4715;51.660;7.082;2023-05-10T09:30:24;16.30;99.90
5086;DHT22;4715;51.660;7.082;2023-05-10T09:32:47;16.30;99.90
5086;DHT22;4715;51.660;7.082;2023-05-10T09:35:11;16.30;99.90
5086;DHT22;4715;51.660;7.082;2023-05-10T09:37:34;16.30;99.90
5086;DHT22;4715;51.660;7.082;2023-05-10T09:39:56;16.30;99.90
5086;DHT22;4715;51.660;7.082;2023-05-10T09:42:18;16.30;99.90
5086;DHT22;4715;51.660;7.082;2023-05-10T09:44:40;16.30;99.90
5086;DHT22;4715;51.660;7.082;2023-05-10T09:47:04;16.30;99.90
5086;DHT22;4715;51.660;7.082;2023-05-10T09:49:26;16.20;99.90
5086;DHT22;4715;51.660;7.082;2023-05-10T09:51:56;16.20;99.90
5086;DHT22;4715;51.660;7.082;2023-05-10T09:54:23;16.10;99.90
5086;DHT22;4715;51.660;7.082;2023-05-10T09:56:45;16.00;99.90
5086;DHT22;4715;51.660;7.082;2023-05-10T09:59:09;15.90;99.90
5086;DHT22;4715;51.660;7.082;2023-05-10T10:01:31;15.90;99.90
5086;DHT22;4715;51.660;7.082;2023-05-10T10:03:53;15.90;99.90
5086;DHT22;4715;51.660;7.082;2023-05-10T10:06:19;15.90;99.90
5086;DHT22;4715;51.660;7.082;2023-05-10T10:08:41;15.90;99.90
5086;DHT22;4715;51.660;7.082;2023-05-10T10:11:04;16.00;99.90
5086;DHT22;4715;51.660;7.082;2023-05-10T10:13:26;16.10;99.90
5086;DHT22;4715;51.660;7.082;2023-05-10T10:15:48;16.10;99.90
5086;DHT22;4715;51.660;7.082;2023-05-10T10:18:13;16.20;99.90
5086;DHT22;4715;51.660;7.082;2023-05-10T10:20:37;16.20;99.90
5086;DHT22;4715;51.660;7.082;2023-05-10T10:22:59;16.30;99.90
5086;DHT22;4715;51.660;7.082;2023-05-10T10:25:21;16.30;99.90
5086;DHT22;4715;51.660;7.082;2023-05-10T10:27:59;16.30;99.90
5086;DHT22;4715;51.660;7.082;2023-05-10T10:30:29;16.40;99.90
5086;DHT22;4715;51.660;7.082;2023-05-10T10:33:06;16.60;99.90
5086;DHT22;4715;51.660;7.082;2023-05-10T10:35:33;16.70;99.90
5086;DHT22;4715;51.660;7.082;2023-05-10T10:37:55;16.60;99.90
5086;DHT22;4715;51.660;7.082;2023-05-10T10:40:24;16.60;99.90
5086;DHT22;4715;51.660;7.082;2023-05-10T10:42:48;16.50;99.90
5086;DHT22;4715;51.660;7.082;2023-05-10T10:45:13;16.50;99.90
5086;DHT22;4715;51.660;7.082;2023-05-10T10:47:35;16.60;99.90
5086;DHT22;4715;51.660;7.082;2023-05-10T10:50:05;16.50;99.90
5086;DHT22;4715;51.660;7.082;2023-05-10T10:52:30;16.50;99.90
5086;DHT22;4715;51.660;7.082;2023-05-10T10:54:58;16.40;99.90
5086;DHT22;4715;51.660;7.082;2023-05-10T10:57:20;16.30;99.90
5086;DHT22;4715;51.660;7.082;2023-05-10T10:59:44;16.10;99.90
5086;DHT22;4715;51.660;7.082;2023-05-10T11:02:06;16.00;99.90
5086;DHT22;4715;51.660;7.082;2023-05-10T11:04:28;15.90;99.90
5086;DHT22;4715;51.660;7.082;2023-05-10T11:07:16;15.90;99.90
5086;DHT22;4715;51.660;7.082;2023-05-10T11:09:40;16.00;99.90
5086;DHT22;4715;51.660;7.082;2023-05-10T11:12:08;16.10;99.90
5086;DHT22;4715;51.660;7.082;2023-05-10T11:14:31;16.10;99.90
5086;DHT22;4715;51.660;7.082;2023-05-10T11:16:54;16.10;99.90
5086;DHT22;4715;51.660;7.082;2023-05-10T11:19:17;16.10;99.90
5086;DHT22;4715;51.660;7.082;2023-05-10T11:21:45;16.10;99.90
5086;DHT22;4715;51.660;7.082;2023-05-10T11:24:13;16.10;99.90
5086;DHT22;4715;51.660;7.082;2023-05-10T11:26:35;16.20;99.90
5086;DHT22;4715;51.660;7.082;2023-05-10T11:28:59;16.20;99.90
5086;DHT22;4715;51.660;7.082;2023-05-10T11:31:22;16.30;99.90
5086;DHT22;4715;51.660;7.082;2023-05-10T11:33:50;16.30;99.90
5086;DHT22;4715;51.660;7.082;2023-05-10T11:36:13;16.30;99.90
5086;DHT22;4715;51.660;7.082;2023-05-10T11:38:35;16.40;99.90
5086;DHT22;4715;51.660;7.082;2023-05-10T11:40:57;16.40;99.90
5086;DHT22;4715;51.660;7.082;2023-05-10T11:43:19;16.40;99.90
5086;DHT22;4715;51.660;7.082;2023-05-10T11:45:46;16.30;99.90
5086;DHT22;4715;51.660;7.082;2023-05-10T11:48:07;16.20;99.90
5086;DHT22;4715;51.660;7.082;2023-05-10T11:50:31;16.10;99.90
5086;DHT22;4715;51.660;7.082;2023-05-10T11:52:54;16.20;99.90
5086;DHT22;4715;51.660;7.082;2023-05-10T11:55:16;16.20;99.90
5086;DHT22;4715;51.660;7.082;2023-05-10T11:57:38;16.20;99.90
5086;DHT22;4715;51.660;7.082;2023-05-10T12:00:02;16.20;99.90
5086;DHT22;4715;51.660;7.082;2023-05-10T12:02:25;16.20;99.90
5086;DHT22;4715;51.660;7.082;2023-05-10T12:04:47;16.20;99.90
5086;DHT22;4715;51.660;7.082;2023-05-10T12:07:11;16.20;99.90
5086;DHT22;4715;51.660;7.082;2023-05-10T12:09:34;16.30;99.90
5086;DHT22;4715;51.660;7.082;2023-05-10T12:11:58;16.30;99.90
5086;DHT22;4715;51.660;7.082;2023-05-10T12:14:22;16.30;99.90
5086;DHT22;4715;51.660;7.082;2023-05-10T12:16:44;16.40;99.90
5086;DHT22;4715;51.660;7.082;2023-05-10T12:19:06;16.50;99.90
5086;DHT22;4715;51.660;7.082;2023-05-10T12:21:29;16.50;99.90
5086;DHT22;4715;51.660;7.082;2023-05-10T12:23:54;16.50;99.90
5086;DHT22;4715;51.660;7.082;2023-05-10T12:26:17;16.50;99.90
5086;DHT22;4715;51.660;7.082;2023-05-10T12:28:39;16.50;99.90
5086;DHT22;4715;51.660;7.082;2023-05-10T12:31:02;16.50;99.90
5086;DHT22;4715;51.660;7.082;2023-05-10T12:33:24;16.60;99.90
5086;DHT22;4715;51.660;7.082;2023-05-10T12:35:47;16.60;99.90
5086;DHT22;4715;51.660;7.082;2023-05-10T12:38:24;16.70;99.90
5086;DHT22;4715;51.660;7.082;2023-05-10T12:40:47;16.90;99.90
5086;DHT22;4715;51.660;7.082;2023-05-10T12:43:10;17.00;99.90
5086;DHT22;4715;51.660;7.082;2023-05-10T12:45:32;17.00;99.90
5086;DHT22;4715;51.660;7.082;2023-05-10T12:47:54;17.10;99.90
5086;DHT22;4715;51.660;7.082;2023-05-10T12:50:15;17.10;99.90
5086;DHT22;4715;51.660;7.082;2023-05-10T12:52:37;17.10;99.90
5086;DHT22;4715;51.660;7.082;2023-05-10T12:55:00;17.10;99.90
5086;DHT22;4715;51.660;7.082;2023-05-10T12:57:29;17.10;99.90
5086;DHT22;4715;51.660;7.082;2023-05-10T12:59:52;17.10;99.90
5086;DHT22;4715;51.660;7.082;2023-05-10T13:02:13;17.20;99.90
5086;DHT22;4715;51.660;7.082;2023-05-10T13:04:38;17.20;99.90
5086;DHT22;4715;51.660;7.082;2023-05-10T13:07:00;17.20;99.90
5086;DHT22;4715;51.660;7.082;2023-05-10T13:09:22;17.20;99.90
5086;DHT22;4715;51.660;7.082;2023-05-10T13:11:47;17.30;99.90
5086;DHT22;4715;51.660;7.082;2023-05-10T13:14:12;17.40;99.90
5086;DHT22;4715;51.660;7.082;2023-05-10T13:16:34;17.40;99.90
5086;DHT22;4715;51.660;7.082;2023-05-10T13:18:58;17.50;99.90
5086;DHT22;4715;51.660;7.082;2023-05-10T13:21:21;17.50;99.90
5086;DHT22;4715;51.660;7.082;2023-05-10T13:23:44;17.60;99.90
5086;DHT22;4715;51.660;7.082;2023-05-10T13:26:07;17.60;99.90
5086;DHT22;4715;51.660;7.082;2023-05-10T13:28:29;17.60;99.90
5086;DHT22;4715;51.660;7.082;2023-05-10T13:30:53;17.60;99.90
5086;DHT22;4715;51.660;7.082;2023-05-10T13:33:15;17.70;99.90
5086;DHT22;4715;51.660;7.082;2023-05-10T13:35:38;17.80;99.90
5086;DHT22;4715;51.660;7.082;2023-05-10T13:38:01;17.90;99.90
5086;DHT22;4715;51.660;7.082;2023-05-10T13:40:23;18.00;99.90
5086;DHT22;4715;51.660;7.082;2023-05-10T13:42:45;18.00;99.90
5086;DHT22;4715;51.660;7.082;2023-05-10T13:45:08;18.10;99.90
5086;DHT22;4715;51.660;7.082;2023-05-10T13:47:31;18.20;99.90
5086;DHT22;4715;51.660;7.082;2023-05-10T13:49:53;18.30;99.90
5086;DHT22;4715;51.660;7.082;2023-05-10T13:52:15;18.30;99.90
5086;DHT22;4715;51.660;7.082;2023-05-10T13:54:37;18.20;99.90
5086;DHT22;4715;51.660;7.082;2023-05-10T13:56:59;18.30;99.90
5086;DHT22;4715;51.660;7.082;2023-05-10T13:59:21;18.40;99.90
5086;DHT22;4715;51.660;7.082;2023-05-10T14:01:43;18.50;99.90
5086;DHT22;4715;51.660;7.082;2023-05-10T14:04:06;18.60;99.90
5086;DHT22;4715;51.660;7.082;2023-05-10T14:06:30;18.70;99.90
5086;DHT22;4715;51.660;7.082;2023-05-10T14:08:52;18.80;99.90
5086;DHT22;4715;51.660;7.082;2023-05-10T14:11:14;19.00;99.90
5086;DHT22;4715;51.660;7.082;2023-05-10T14:13:36;19.00;99.90
5086;DHT22;4715;51.660;7.082;2023-05-10T14:15:58;19.10;99.90
5086;DHT22;4715;51.660;7.082;2023-05-10T14:18:21;19.00;99.90
5086;DHT22;4715;51.660;7.082;2023-05-10T14:20:44;18.80;99.90
5086;DHT22;4715;51.660;7.082;2023-05-10T14:23:06;18.70;99.90
5086;DHT22;4715;51.660;7.082;2023-05-10T14:25:28;18.60;99.90
5086;DHT22;4715;51.660;7.082;2023-05-10T14:27:49;18.60;99.90
5086;DHT22;4715;51.660;7.082;2023-05-10T14:30:12;18.60;99.90
5086;DHT22;4715;51.660;7.082;2023-05-10T14:32:34;18.60;99.90
5086;DHT22;4715;51.660;7.082;2023-05-10T14:34:57;18.60;99.90
5086;DHT22;4715;51.660;7.082;2023-05-10T14:37:20;18.60;99.90
5086;DHT22;4715;51.660;7.082;2023-05-10T14:39:41;18.60;99.90
5086;DHT22;4715;51.660;7.082;2023-05-10T14:42:13;18.50;99.90
5086;DHT22;4715;51.660;7.082;2023-05-10T14:44:35;18.40;99.90
5086;DHT22;4715;51.660;7.082;2023-05-10T14:46:57;18.40;99.90
5086;DHT22;4715;51.660;7.082;2023-05-10T14:49:18;18.40;99.90
5086;DHT22;4715;51.660;7.082;2023-05-10T14:51:43;18.40;99.90
5086;DHT22;4715;51.660;7.082;2023-05-10T14:54:07;18.40;99.90
5086;DHT22;4715;51.660;7.082;2023-05-10T14:56:28;18.50;99.90
5086;DHT22;4715;51.660;7.082;2023-05-10T14:58:50;18.50;99.90
5086;DHT22;4715;51.660;7.082;2023-05-10T15:01:12;18.60;99.90
5086;DHT22;4715;51.660;7.082;2023-05-10T15:03:34;18.60;99.90
5086;DHT22;4715;51.660;7.082;2023-05-10T15:05:56;18.60;99.90
5086;DHT22;4715;51.660;7.082;2023-05-10T15:08:19;18.60;99.90
5086;DHT22;4715;51.660;7.082;2023-05-10T15:10:43;18.70;99.90
5086;DHT22;4715;51.660;7.082;2023-05-10T15:13:07;18.80;99.90
5086;DHT22;4715;51.660;7.082;2023-05-10T15:15:29;19.00;99.90
5086;DHT22;4715;51.660;7.082;2023-05-10T15:17:52;19.20;99.90
5086;DHT22;4715;51.660;7.082;2023-05-10T15:20:18;19.40;99.90
5086;DHT22;4715;51.660;7.082;2023-05-10T15:22:40;19.40;99.90
5086;DHT22;4715;51.660;7.082;2023-05-10T15:25:03;19.30;99.90
5086;DHT22;4715;51.660;7.082;2023-05-10T15:27:26;19.10;99.90
5086;DHT22;4715;51.660;7.082;2023-05-10T15:29:48;18.90;99.90
5086;DHT22;4715;51.660;7.082;2023-05-10T15:32:11;18.80;99.90
5086;DHT22;4715;51.660;7.082;2023-05-10T15:34:33;18.60;99.90
5086;DHT22;4715;51.660;7.082;2023-05-10T15:36:55;18.50;99.90
5086;DHT22;4715;51.660;7.082;2023-05-10T15:39:19;18.40;99.90